sensor_id;sensor_type;location;lat;lon;timestamp;P1;durP1;ratioP1;P2;durP2;ratioP2
71759;SDS011;59919;48.112;16.280;2023-01-16T00:01:11;0.40;;;0.40;;
71759;SDS011;59919;48.112;16.280;2023-01-16T00:03:41;0.40;;;0.40;;
71759;SDS011;59919;48.112;16.280;2023-01-16T00:06:13;0.50;;;0.40;;
71759;SDS011;59919;48.112;16.280;2023-01-16T00:08:50;0.63;;;0.43;;
71759;SDS011;59919;48.112;16.280;2023-01-16T00:11:23;0.35;;;0.35;;
71759;SDS011;59919;48.112;16.280;2023-01-16T00:13:56;0.28;;;0.25;;
71759;SDS011;59919;48.112;16.280;2023-01-16T00:19:07;0.40;;;0.30;;
71759;SDS011;59919;48.112;16.280;2023-01-16T00:21:38;0.70;;;0.40;;
71759;SDS011;59919;48.112;16.280;2023-01-16T00:24:12;0.30;;;0.30;;
71759;SDS011;59919;48.112;16.280;2023-01-16T00:26:45;0.30;;;0.25;;
71759;SDS011;59919;48.112;16.280;2023-01-16T00:29:16;0.52;;;0.38;;
71759;SDS011;59919;48.112;16.280;2023-01-16T00:31:50;0.25;;;0.25;;
71759;SDS011;59919;48.112;16.280;2023-01-16T00:34:21;0.40;;;0.40;;
71759;SDS011;59919;48.112;16.280;2023-01-16T00:36:55;0.35;;;0.35;;
71759;SDS011;59919;48.112;16.280;2023-01-16T00:39:26;0.88;;;0.40;;
71759;SDS011;59919;48.112;16.280;2023-01-16T00:42:05;0.50;;;0.40;;
71759;SDS011;59919;48.112;16.280;2023-01-16T00:44:39;0.32;;;0.30;;
71759;SDS011;59919;48.112;16.280;2023-01-16T00:47:10;0.25;;;0.25;;
71759;SDS011;59919;48.112;16.280;2023-01-16T00:49:41;0.55;;;0.40;;
71759;SDS011;59919;48.112;16.280;2023-01-16T00:52:12;0.30;;;0.30;;
71759;SDS011;59919;48.112;16.280;2023-01-16T00:54:46;0.40;;;0.30;;
71759;SDS011;59919;48.112;16.280;2023-01-16T00:57:19;0.45;;;0.40;;
71759;SDS011;59919;48.112;16.280;2023-01-16T00:59:50;0.40;;;0.40;;
71759;SDS011;59919;48.112;16.280;2023-01-16T01:02:21;0.98;;;0.40;;
71759;SDS011;59919;48.112;16.280;2023-01-16T01:04:52;0.40;;;0.40;;
71759;SDS011;59919;48.112;16.280;2023-01-16T01:07:23;0.38;;;0.35;;
71759;SDS011;59919;48.112;16.280;2023-01-16T01:09:57;0.43;;;0.30;;
71759;SDS011;59919;48.112;16.280;2023-01-16T01:12:38;0.63;;;0.35;;
71759;SDS011;59919;48.112;16.280;2023-01-16T01:15:13;0.50;;;0.40;;
71759;SDS011;59919;48.112;16.280;2023-01-16T01:17:46;0.75;;;0.43;;
71759;SDS011;59919;48.112;16.280;2023-01-16T01:20:17;0.52;;;0.40;;
71759;SDS011;59919;48.112;16.280;2023-01-16T01:22:51;0.60;;;0.32;;
71759;SDS011;59919;48.112;16.280;2023-01-16T01:25:24;0.35;;;0.32;;
71759;SDS011;59919;48.112;16.280;2023-01-16T01:28:03;0.30;;;0.20;;
71759;SDS011;59919;48.112;16.280;2023-01-16T01:30:42;0.88;;;0.55;;
71759;SDS011;59919;48.112;16.280;2023-01-16T01:33:13;0.30;;;0.30;;
71759;SDS011;59919;48.112;16.280;2023-01-16T01:35:44;0.40;;;0.30;;
71759;SDS011;59919;48.112;16.280;2023-01-16T01:38:17;0.90;;;0.40;;
71759;SDS011;59919;48.112;16.280;2023-01-16T01:40:51;0.35;;;0.30;;
71759;SDS011;59919;48.112;16.280;2023-01-16T01:46:34;0.30;;;0.30;;
71759;SDS011;59919;48.112;16.280;2023-01-16T01:49:21;0.30;;;0.30;;
71759;SDS011;59919;48.112;16.280;2023-01-16T01:51:56;0.50;;;0.35;;
71759;SDS011;59919;48.112;16.280;2023-01-16T01:55:13;0.30;;;0.30;;
71759;SDS011;59919;48.112;16.280;2023-01-16T01:57:36;0.35;;;0.30;;
71759;SDS011;59919;48.112;16.280;2023-01-16T02:00:20;0.90;;;0.30;;
71759;SDS011;59919;48.112;16.280;2023-01-16T02:03:06;0.40;;;0.30;;
71759;SDS011;59919;48.112;16.280;2023-01-16T02:05:46;0.30;;;0.30;;
71759;SDS011;59919;48.112;16.280;2023-01-16T02:08:20;0.30;;;0.30;;
71759;SDS011;59919;48.112;16.280;2023-01-16T02:11:17;0.88;;;0.35;;
71759;SDS011;59919;48.112;16.280;2023-01-16T02:14:07;0.45;;;0.40;;
71759;SDS011;59919;48.112;16.280;2023-01-16T02:16:46;0.73;;;0.32;;
71759;SDS011;59919;48.112;16.280;2023-01-16T02:31:44;0.67;;;0.30;;
71759;SDS011;59919;48.112;16.280;2023-01-16T02:34:34;0.20;;;0.20;;
71759;SDS011;59919;48.112;16.280;2023-01-16T02:43:27;0.30;;;0.30;;
71759;SDS011;59919;48.112;16.280;2023-01-16T02:46:24;0.30;;;0.30;;
71759;SDS011;59919;48.112;16.280;2023-01-16T02:49:32;0.40;;;0.30;;
71759;SDS011;59919;48.112;16.280;2023-01-16T02:55:16;0.40;;;0.30;;
71759;SDS011;59919;48.112;16.280;2023-01-16T02:57:56;0.50;;;0.32;;
71759;SDS011;59919;48.112;16.280;2023-01-16T03:00:33;0.25;;;0.25;;
71759;SDS011;59919;48.112;16.280;2023-01-16T03:03:18;0.43;;;0.30;;
71759;SDS011;59919;48.112;16.280;2023-01-16T03:20:44;0.30;;;0.30;;
71759;SDS011;59919;48.112;16.280;2023-01-16T03:26:54;0.50;;;0.47;;
71759;SDS011;59919;48.112;16.280;2023-01-16T03:29:55;0.45;;;0.40;;
71759;SDS011;59919;48.112;16.280;2023-01-16T03:32:42;0.30;;;0.30;;
71759;SDS011;59919;48.112;16.280;2023-01-16T03:35:25;0.60;;;0.50;;
71759;SDS011;59919;48.112;16.280;2023-01-16T03:38:06;0.50;;;0.30;;
71759;SDS011;59919;48.112;16.280;2023-01-16T03:40:41;0.30;;;0.30;;
71759;SDS011;59919;48.112;16.280;2023-01-16T03:43:23;0.30;;;0.30;;
71759;SDS011;59919;48.112;16.280;2023-01-16T03:46:00;0.47;;;0.40;;
71759;SDS011;59919;48.112;16.280;2023-01-16T03:48:40;0.75;;;0.25;;
71759;SDS011;59919;48.112;16.280;2023-01-16T03:51:37;0.40;;;0.40;;
71759;SDS011;59919;48.112;16.280;2023-01-16T03:59:44;0.20;;;0.20;;
71759;SDS011;59919;48.112;16.280;2023-01-16T04:02:20;0.45;;;0.30;;
71759;SDS011;59919;48.112;16.280;2023-01-16T04:10:40;0.30;;;0.30;;
71759;SDS011;59919;48.112;16.280;2023-01-16T04:13:21;0.30;;;0.30;;
71759;SDS011;59919;48.112;16.280;2023-01-16T04:15:56;0.45;;;0.30;;
71759;SDS011;59919;48.112;16.280;2023-01-16T04:18:35;0.43;;;0.40;;
71759;SDS011;59919;48.112;16.280;2023-01-16T04:21:07;0.63;;;0.30;;
71759;SDS011;59919;48.112;16.280;2023-01-16T04:23:41;0.50;;;0.40;;
71759;SDS011;59919;48.112;16.280;2023-01-16T04:26:16;0.40;;;0.40;;
71759;SDS011;59919;48.112;16.280;2023-01-16T04:28:47;0.40;;;0.38;;
71759;SDS011;59919;48.112;16.280;2023-01-16T04:31:24;0.30;;;0.30;;
71759;SDS011;59919;48.112;16.280;2023-01-16T04:33:58;0.60;;;0.35;;
71759;SDS011;59919;48.112;16.280;2023-01-16T04:36:31;0.40;;;0.40;;
71759;SDS011;59919;48.112;16.280;2023-01-16T04:39:11;0.38;;;0.38;;
71759;SDS011;59919;48.112;16.280;2023-01-16T04:41:42;0.52;;;0.30;;
71759;SDS011;59919;48.112;16.280;2023-01-16T04:44:20;0.70;;;0.30;;
71759;SDS011;59919;48.112;16.280;2023-01-16T04:46:56;0.63;;;0.40;;
71759;SDS011;59919;48.112;16.280;2023-01-16T04:49:30;0.43;;;0.30;;
71759;SDS011;59919;48.112;16.280;2023-01-16T04:52:12;1.15;;;0.40;;
71759;SDS011;59919;48.112;16.280;2023-01-16T04:54:47;0.65;;;0.30;;
71759;SDS011;59919;48.112;16.280;2023-01-16T04:57:21;0.40;;;0.40;;
71759;SDS011;59919;48.112;16.280;2023-01-16T04:59:54;0.40;;;0.38;;
71759;SDS011;59919;48.112;16.280;2023-01-16T05:02:25;0.43;;;0.30;;
71759;SDS011;59919;48.112;16.280;2023-01-16T05:05:02;0.40;;;0.40;;
71759;SDS011;59919;48.112;16.280;2023-01-16T05:07:36;0.63;;;0.30;;
71759;SDS011;59919;48.112;16.280;2023-01-16T05:10:10;0.32;;;0.30;;
71759;SDS011;59919;48.112;16.280;2023-01-16T05:12:41;0.32;;;0.30;;
71759;SDS011;59919;48.112;16.280;2023-01-16T05:15:12;0.73;;;0.40;;
71759;SDS011;59919;48.112;16.280;2023-01-16T05:17:47;0.60;;;0.30;;
71759;SDS011;59919;48.112;16.280;2023-01-16T05:20:22;1.35;;;0.45;;
71759;SDS011;59919;48.112;16.280;2023-01-16T05:22:53;0.55;;;0.40;;
71759;SDS011;59919;48.112;16.280;2023-01-16T05:25:27;0.15;;;0.15;;
71759;SDS011;59919;48.112;16.280;2023-01-16T05:28:01;0.63;;;0.40;;
71759;SDS011;59919;48.112;16.280;2023-01-16T05:30:33;0.30;;;0.30;;
71759;SDS011;59919;48.112;16.280;2023-01-16T05:33:04;0.35;;;0.30;;
71759;SDS011;59919;48.112;16.280;2023-01-16T05:35:38;0.30;;;0.30;;
71759;SDS011;59919;48.112;16.280;2023-01-16T05:38:09;0.68;;;0.45;;
71759;SDS011;59919;48.112;16.280;2023-01-16T05:40:40;0.30;;;0.30;;
71759;SDS011;59919;48.112;16.280;2023-01-16T05:43:12;0.35;;;0.20;;
71759;SDS011;59919;48.112;16.280;2023-01-16T05:45:49;1.10;;;0.43;;
71759;SDS011;59919;48.112;16.280;2023-01-16T05:48:20;0.40;;;0.20;;
71759;SDS011;59919;48.112;16.280;2023-01-16T05:50:57;0.20;;;0.20;;
71759;SDS011;59919;48.112;16.280;2023-01-16T05:53:30;0.60;;;0.20;;
71759;SDS011;59919;48.112;16.280;2023-01-16T05:56:08;0.60;;;0.30;;
71759;SDS011;59919;48.112;16.280;2023-01-16T06:01:17;0.22;;;0.20;;
71759;SDS011;59919;48.112;16.280;2023-01-16T06:03:48;0.80;;;0.25;;
71759;SDS011;59919;48.112;16.280;2023-01-16T06:06:20;0.50;;;0.30;;
71759;SDS011;59919;48.112;16.280;2023-01-16T06:08:51;1.45;;;0.30;;
71759;SDS011;59919;48.112;16.280;2023-01-16T06:11:22;1.02;;;0.30;;
71759;SDS011;59919;48.112;16.280;2023-01-16T06:13:56;0.30;;;0.28;;
71759;SDS011;59919;48.112;16.280;2023-01-16T06:19:09;0.52;;;0.30;;
71759;SDS011;59919;48.112;16.280;2023-01-16T06:21:52;0.38;;;0.30;;
71759;SDS011;59919;48.112;16.280;2023-01-16T06:24:23;0.80;;;0.50;;
71759;SDS011;59919;48.112;16.280;2023-01-16T06:26:54;1.10;;;0.60;;
71759;SDS011;59919;48.112;16.280;2023-01-16T06:29:28;0.15;;;0.15;;
71759;SDS011;59919;48.112;16.280;2023-01-16T06:32:04;0.50;;;0.30;;
71759;SDS011;59919;48.112;16.280;2023-01-16T06:34:43;0.45;;;0.30;;
71759;SDS011;59919;48.112;16.280;2023-01-16T06:37:17;0.57;;;0.40;;
71759;SDS011;59919;48.112;16.280;2023-01-16T06:39:50;0.30;;;0.30;;
71759;SDS011;59919;48.112;16.280;2023-01-16T06:42:27;0.50;;;0.40;;
71759;SDS011;59919;48.112;16.280;2023-01-16T06:45:02;0.45;;;0.40;;
71759;SDS011;59919;48.112;16.280;2023-01-16T06:47:36;0.40;;;0.30;;
71759;SDS011;59919;48.112;16.280;2023-01-16T06:50:11;0.50;;;0.30;;
71759;SDS011;59919;48.112;16.280;2023-01-16T06:52:42;0.40;;;0.30;;
71759;SDS011;59919;48.112;16.280;2023-01-16T06:55:21;0.38;;;0.38;;
71759;SDS011;59919;48.112;16.280;2023-01-16T06:57:55;0.50;;;0.30;;
71759;SDS011;59919;48.112;16.280;2023-01-16T07:00:29;0.40;;;0.30;;
71759;SDS011;59919;48.112;16.280;2023-01-16T07:03:01;0.25;;;0.25;;
71759;SDS011;59919;48.112;16.280;2023-01-16T07:05:35;0.45;;;0.30;;
71759;SDS011;59919;48.112;16.280;2023-01-16T07:08:06;0.30;;;0.30;;
71759;SDS011;59919;48.112;16.280;2023-01-16T07:10:38;0.50;;;0.40;;
71759;SDS011;59919;48.112;16.280;2023-01-16T07:13:11;0.30;;;0.30;;
71759;SDS011;59919;48.112;16.280;2023-01-16T07:15:46;0.50;;;0.25;;
71759;SDS011;59919;48.112;16.280;2023-01-16T07:18:36;0.50;;;0.35;;
71759;SDS011;59919;48.112;16.280;2023-01-16T07:21:28;1.45;;;0.50;;
71759;SDS011;59919;48.112;16.280;2023-01-16T07:24:21;0.38;;;0.38;;
71759;SDS011;59919;48.112;16.280;2023-01-16T07:26:56;0.50;;;0.30;;
71759;SDS011;59919;48.112;16.280;2023-01-16T07:29:33;1.05;;;0.30;;
71759;SDS011;59919;48.112;16.280;2023-01-16T07:32:04;0.43;;;0.30;;
71759;SDS011;59919;48.112;16.280;2023-01-16T07:34:36;3.28;;;0.38;;
71759;SDS011;59919;48.112;16.280;2023-01-16T07:37:07;0.70;;;0.40;;
71759;SDS011;59919;48.112;16.280;2023-01-16T07:39:41;3.22;;;0.43;;
71759;SDS011;59919;48.112;16.280;2023-01-16T07:42:16;1.00;;;0.43;;
71759;SDS011;59919;48.112;16.280;2023-01-16T07:44:50;1.30;;;0.30;;
71759;SDS011;59919;48.112;16.280;2023-01-16T07:47:21;0.47;;;0.20;;
71759;SDS011;59919;48.112;16.280;2023-01-16T07:49:52;1.17;;;0.40;;
71759;SDS011;59919;48.112;16.280;2023-01-16T07:52:23;2.55;;;0.50;;
71759;SDS011;59919;48.112;16.280;2023-01-16T07:54:56;0.95;;;0.40;;
71759;SDS011;59919;48.112;16.280;2023-01-16T07:57:29;1.95;;;0.55;;
71759;SDS011;59919;48.112;16.280;2023-01-16T08:00:04;2.95;;;0.63;;
71759;SDS011;59919;48.112;16.280;2023-01-16T08:02:43;2.78;;;0.55;;
71759;SDS011;59919;48.112;16.280;2023-01-16T08:05:15;2.30;;;0.57;;
71759;SDS011;59919;48.112;16.280;2023-01-16T08:07:48;2.30;;;0.50;;
71759;SDS011;59919;48.112;16.280;2023-01-16T08:10:21;3.80;;;0.60;;
71759;SDS011;59919;48.112;16.280;2023-01-16T08:12:54;3.25;;;0.52;;
71759;SDS011;59919;48.112;16.280;2023-01-16T08:15:25;0.70;;;0.40;;
71759;SDS011;59919;48.112;16.280;2023-01-16T08:17:59;1.25;;;0.50;;
71759;SDS011;59919;48.112;16.280;2023-01-16T08:20:30;1.55;;;0.55;;
71759;SDS011;59919;48.112;16.280;2023-01-16T08:23:01;0.40;;;0.40;;
71759;SDS011;59919;48.112;16.280;2023-01-16T08:25:35;1.50;;;0.55;;
71759;SDS011;59919;48.112;16.280;2023-01-16T08:28:08;0.75;;;0.55;;
71759;SDS011;59919;48.112;16.280;2023-01-16T08:30:39;0.95;;;0.45;;
71759;SDS011;59919;48.112;16.280;2023-01-16T08:33:13;1.48;;;0.70;;
71759;SDS011;59919;48.112;16.280;2023-01-16T08:35:44;8.30;;;0.88;;
71759;SDS011;59919;48.112;16.280;2023-01-16T08:38:15;6.25;;;0.60;;
71759;SDS011;59919;48.112;16.280;2023-01-16T08:40:49;1.10;;;0.47;;
71759;SDS011;59919;48.112;16.280;2023-01-16T08:43:25;1.42;;;0.50;;
71759;SDS011;59919;48.112;16.280;2023-01-16T08:46:18;1.50;;;0.40;;
71759;SDS011;59919;48.112;16.280;2023-01-16T08:49:11;1.75;;;0.60;;
71759;SDS011;59919;48.112;16.280;2023-01-16T08:52:02;4.45;;;0.45;;
71759;SDS011;59919;48.112;16.280;2023-01-16T08:54:33;1.77;;;0.32;;
71759;SDS011;59919;48.112;16.280;2023-01-16T08:57:12;2.17;;;0.60;;
71759;SDS011;59919;48.112;16.280;2023-01-16T08:59:45;0.57;;;0.52;;
71759;SDS011;59919;48.112;16.280;2023-01-16T09:02:16;1.88;;;0.35;;
71759;SDS011;59919;48.112;16.280;2023-01-16T09:04:50;0.70;;;0.50;;
71759;SDS011;59919;48.112;16.280;2023-01-16T09:07:25;1.77;;;0.40;;
71759;SDS011;59919;48.112;16.280;2023-01-16T09:09:59;2.22;;;0.40;;
71759;SDS011;59919;48.112;16.280;2023-01-16T09:12:35;2.00;;;0.50;;
71759;SDS011;59919;48.112;16.280;2023-01-16T09:15:27;3.15;;;0.57;;
71759;SDS011;59919;48.112;16.280;2023-01-16T09:18:00;2.60;;;0.50;;
71759;SDS011;59919;48.112;16.280;2023-01-16T09:20:32;1.88;;;0.40;;
71759;SDS011;59919;48.112;16.280;2023-01-16T09:23:07;0.65;;;0.30;;
71759;SDS011;59919;48.112;16.280;2023-01-16T09:25:40;1.52;;;0.80;;
71759;SDS011;59919;48.112;16.280;2023-01-16T09:28:12;1.00;;;0.40;;
71759;SDS011;59919;48.112;16.280;2023-01-16T09:30:50;1.67;;;0.50;;
71759;SDS011;59919;48.112;16.280;2023-01-16T09:33:21;1.50;;;0.40;;
71759;SDS011;59919;48.112;16.280;2023-01-16T09:35:53;1.15;;;0.40;;
71759;SDS011;59919;48.112;16.280;2023-01-16T09:38:24;1.42;;;0.50;;
71759;SDS011;59919;48.112;16.280;2023-01-16T09:40:56;1.73;;;0.50;;
71759;SDS011;59919;48.112;16.280;2023-01-16T09:43:37;0.70;;;0.50;;
71759;SDS011;59919;48.112;16.280;2023-01-16T09:46:19;4.18;;;0.80;;
71759;SDS011;59919;48.112;16.280;2023-01-16T09:49:01;1.88;;;0.50;;
71759;SDS011;59919;48.112;16.280;2023-01-16T09:51:40;1.30;;;0.60;;
71759;SDS011;59919;48.112;16.280;2023-01-16T09:54:39;1.45;;;0.60;;
71759;SDS011;59919;48.112;16.280;2023-01-16T09:57:33;1.98;;;0.60;;
71759;SDS011;59919;48.112;16.280;2023-01-16T10:00:27;0.77;;;0.50;;
71759;SDS011;59919;48.112;16.280;2023-01-16T10:03:07;1.95;;;0.50;;
71759;SDS011;59919;48.112;16.280;2023-01-16T10:05:47;3.15;;;0.50;;
71759;SDS011;59919;48.112;16.280;2023-01-16T10:08:37;2.08;;;0.52;;
71759;SDS011;59919;48.112;16.280;2023-01-16T10:14:39;2.65;;;0.40;;
71759;SDS011;59919;48.112;16.280;2023-01-16T10:25:29;0.60;;;0.30;;
71759;SDS011;59919;48.112;16.280;2023-01-16T10:31:16;0.60;;;0.40;;
71759;SDS011;59919;48.112;16.280;2023-01-16T10:36:34;0.50;;;0.40;;
71759;SDS011;59919;48.112;16.280;2023-01-16T10:39:09;1.25;;;0.50;;
71759;SDS011;59919;48.112;16.280;2023-01-16T10:41:52;9.85;;;0.70;;
71759;SDS011;59919;48.112;16.280;2023-01-16T10:48:00;1.05;;;0.40;;
71759;SDS011;59919;48.112;16.280;2023-01-16T10:50:50;2.70;;;0.40;;
71759;SDS011;59919;48.112;16.280;2023-01-16T10:53:21;2.30;;;0.47;;
71759;SDS011;59919;48.112;16.280;2023-01-16T10:55:53;1.20;;;0.40;;
71759;SDS011;59919;48.112;16.280;2023-01-16T10:58:30;2.13;;;0.50;;
71759;SDS011;59919;48.112;16.280;2023-01-16T11:01:11;1.05;;;0.47;;
71759;SDS011;59919;48.112;16.280;2023-01-16T11:03:50;1.95;;;0.70;;
71759;SDS011;59919;48.112;16.280;2023-01-16T11:06:26;1.15;;;0.45;;
71759;SDS011;59919;48.112;16.280;2023-01-16T11:09:04;0.80;;;0.50;;
71759;SDS011;59919;48.112;16.280;2023-01-16T11:11:40;1.20;;;0.50;;
71759;SDS011;59919;48.112;16.280;2023-01-16T11:14:34;1.52;;;0.40;;
71759;SDS011;59919;48.112;16.280;2023-01-16T11:25:40;1.40;;;0.50;;
71759;SDS011;59919;48.112;16.280;2023-01-16T11:28:12;1.30;;;0.40;;
71759;SDS011;59919;48.112;16.280;2023-01-16T11:30:54;0.95;;;0.30;;
71759;SDS011;59919;48.112;16.280;2023-01-16T11:33:37;1.23;;;0.40;;
71759;SDS011;59919;48.112;16.280;2023-01-16T11:36:17;0.82;;;0.50;;
71759;SDS011;59919;48.112;16.280;2023-01-16T11:38:51;1.45;;;0.50;;
71759;SDS011;59919;48.112;16.280;2023-01-16T11:41:32;1.83;;;0.40;;
71759;SDS011;59919;48.112;16.280;2023-01-16T11:44:15;0.40;;;0.30;;
71759;SDS011;59919;48.112;16.280;2023-01-16T11:47:25;1.88;;;0.50;;
71759;SDS011;59919;48.112;16.280;2023-01-16T11:49:59;1.48;;;0.47;;
71759;SDS011;59919;48.112;16.280;2023-01-16T11:52:31;1.48;;;0.52;;
71759;SDS011;59919;48.112;16.280;2023-01-16T11:55:09;1.42;;;0.55;;
71759;SDS011;59919;48.112;16.280;2023-01-16T12:25:00;4.60;;;0.70;;
71759;SDS011;59919;48.112;16.280;2023-01-16T12:33:17;3.00;;;0.63;;
71759;SDS011;59919;48.112;16.280;2023-01-16T12:39:10;1.45;;;0.65;;
71759;SDS011;59919;48.112;16.280;2023-01-16T12:41:56;0.70;;;0.60;;
71759;SDS011;59919;48.112;16.280;2023-01-16T13:06:50;4.80;;;0.60;;
71759;SDS011;59919;48.112;16.280;2023-01-16T13:09:28;3.78;;;0.50;;
71759;SDS011;59919;48.112;16.280;2023-01-16T13:12:23;2.28;;;0.60;;
71759;SDS011;59919;48.112;16.280;2023-01-16T13:15:28;1.50;;;0.60;;
71759;SDS011;59919;48.112;16.280;2023-01-16T13:18:10;3.38;;;0.80;;
71759;SDS011;59919;48.112;16.280;2023-01-16T13:20:58;0.50;;;0.50;;
71759;SDS011;59919;48.112;16.280;2023-01-16T13:23:33;2.33;;;0.50;;
71759;SDS011;59919;48.112;16.280;2023-01-16T13:26:11;1.38;;;0.85;;
71759;SDS011;59919;48.112;16.280;2023-01-16T13:28:56;1.05;;;0.70;;
71759;SDS011;59919;48.112;16.280;2023-01-16T13:31:44;1.80;;;0.60;;
71759;SDS011;59919;48.112;16.280;2023-01-16T13:34:22;2.45;;;0.57;;
71759;SDS011;59919;48.112;16.280;2023-01-16T13:42:31;0.50;;;0.40;;
71759;SDS011;59919;48.112;16.280;2023-01-16T13:45:15;1.95;;;0.50;;
71759;SDS011;59919;48.112;16.280;2023-01-16T13:48:20;0.93;;;0.73;;
71759;SDS011;59919;48.112;16.280;2023-01-16T13:51:08;2.08;;;0.65;;
71759;SDS011;59919;48.112;16.280;2023-01-16T13:53:49;2.35;;;0.60;;
71759;SDS011;59919;48.112;16.280;2023-01-16T13:56:22;1.27;;;0.50;;
71759;SDS011;59919;48.112;16.280;2023-01-16T13:59:39;1.25;;;0.52;;
71759;SDS011;59919;48.112;16.280;2023-01-16T14:02:25;0.75;;;0.50;;
71759;SDS011;59919;48.112;16.280;2023-01-16T14:23:29;1.33;;;0.60;;
71759;SDS011;59919;48.112;16.280;2023-01-16T14:26:29;0.52;;;0.40;;
71759;SDS011;59919;48.112;16.280;2023-01-16T14:29:12;1.48;;;0.60;;
71759;SDS011;59919;48.112;16.280;2023-01-16T14:31:45;1.85;;;0.60;;
71759;SDS011;59919;48.112;16.280;2023-01-16T14:37:03;2.55;;;0.60;;
71759;SDS011;59919;48.112;16.280;2023-01-16T14:39:37;1.65;;;0.52;;
71759;SDS011;59919;48.112;16.280;2023-01-16T14:48:09;2.63;;;0.50;;
71759;SDS011;59919;48.112;16.280;2023-01-16T14:51:14;0.95;;;0.60;;
71759;SDS011;59919;48.112;16.280;2023-01-16T14:54:33;2.13;;;0.57;;
71759;SDS011;59919;48.112;16.280;2023-01-16T14:57:24;0.90;;;0.65;;
71759;SDS011;59919;48.112;16.280;2023-01-16T15:02:31;1.30;;;0.57;;
71759;SDS011;59919;48.112;16.280;2023-01-16T15:05:12;1.35;;;0.55;;
71759;SDS011;59919;48.112;16.280;2023-01-16T15:07:48;2.65;;;0.60;;
71759;SDS011;59919;48.112;16.280;2023-01-16T15:10:29;1.42;;;0.50;;
71759;SDS011;59919;48.112;16.280;2023-01-16T15:19:35;1.23;;;0.50;;
71759;SDS011;59919;48.112;16.280;2023-01-16T15:22:42;0.65;;;0.50;;
71759;SDS011;59919;48.112;16.280;2023-01-16T15:28:22;1.10;;;0.60;;
71759;SDS011;59919;48.112;16.280;2023-01-16T15:31:25;0.98;;;0.45;;
71759;SDS011;59919;48.112;16.280;2023-01-16T15:34:16;4.95;;;0.70;;
71759;SDS011;59919;48.112;16.280;2023-01-16T15:36:51;10.10;;;1.13;;
71759;SDS011;59919;48.112;16.280;2023-01-16T15:45:21;5.85;;;1.17;;
71759;SDS011;59919;48.112;16.280;2023-01-16T15:51:19;4.32;;;0.80;;
71759;SDS011;59919;48.112;16.280;2023-01-16T15:53:55;9.55;;;0.98;;
71759;SDS011;59919;48.112;16.280;2023-01-16T16:09:58;2.53;;;0.60;;
71759;SDS011;59919;48.112;16.280;2023-01-16T16:12:33;3.67;;;0.80;;
71759;SDS011;59919;48.112;16.280;2023-01-16T16:15:17;1.92;;;0.60;;
71759;SDS011;59919;48.112;16.280;2023-01-16T16:18:19;1.33;;;0.47;;
71759;SDS011;59919;48.112;16.280;2023-01-16T16:20:53;4.70;;;0.75;;
71759;SDS011;59919;48.112;16.280;2023-01-16T16:23:42;2.55;;;0.70;;
71759;SDS011;59919;48.112;16.280;2023-01-16T16:26:14;1.50;;;0.50;;
71759;SDS011;59919;48.112;16.280;2023-01-16T16:28:49;2.50;;;0.70;;
71759;SDS011;59919;48.112;16.280;2023-01-16T16:31:25;1.60;;;0.50;;
71759;SDS011;59919;48.112;16.280;2023-01-16T16:34:06;5.95;;;1.05;;
71759;SDS011;59919;48.112;16.280;2023-01-16T16:36:56;1.52;;;0.65;;
71759;SDS011;59919;48.112;16.280;2023-01-16T16:50:32;2.88;;;0.70;;
71759;SDS011;59919;48.112;16.280;2023-01-16T16:53:11;1.00;;;0.70;;
71759;SDS011;59919;48.112;16.280;2023-01-16T16:55:47;2.25;;;0.82;;
71759;SDS011;59919;48.112;16.280;2023-01-16T16:58:22;2.72;;;0.70;;
71759;SDS011;59919;48.112;16.280;2023-01-16T17:01:01;3.35;;;0.80;;
71759;SDS011;59919;48.112;16.280;2023-01-16T17:03:32;1.90;;;0.82;;
71759;SDS011;59919;48.112;16.280;2023-01-16T17:06:05;0.88;;;0.70;;
71759;SDS011;59919;48.112;16.280;2023-01-16T17:08:38;1.50;;;0.80;;
71759;SDS011;59919;48.112;16.280;2023-01-16T17:11:10;2.03;;;0.80;;
71759;SDS011;59919;48.112;16.280;2023-01-16T17:13:44;2.25;;;0.73;;
71759;SDS011;59919;48.112;16.280;2023-01-16T17:16:16;0.80;;;0.70;;
71759;SDS011;59919;48.112;16.280;2023-01-16T17:19:00;0.63;;;0.50;;
71759;SDS011;59919;48.112;16.280;2023-01-16T17:21:34;2.38;;;0.90;;
71759;SDS011;59919;48.112;16.280;2023-01-16T17:24:08;4.97;;;0.98;;
71759;SDS011;59919;48.112;16.280;2023-01-16T17:26:45;1.60;;;0.80;;
71759;SDS011;59919;48.112;16.280;2023-01-16T17:29:16;2.60;;;0.80;;
71759;SDS011;59919;48.112;16.280;2023-01-16T17:31:50;1.85;;;0.80;;
71759;SDS011;59919;48.112;16.280;2023-01-16T17:34:26;2.50;;;1.20;;
71759;SDS011;59919;48.112;16.280;2023-01-16T17:36:57;7.00;;;1.10;;
71759;SDS011;59919;48.112;16.280;2023-01-16T17:39:29;2.17;;;0.82;;
71759;SDS011;59919;48.112;16.280;2023-01-16T17:42:04;1.08;;;0.75;;
71759;SDS011;59919;48.112;16.280;2023-01-16T17:44:40;1.13;;;0.68;;
71759;SDS011;59919;48.112;16.280;2023-01-16T17:47:30;1.80;;;1.00;;
71759;SDS011;59919;48.112;16.280;2023-01-16T17:50:02;1.08;;;0.80;;
71759;SDS011;59919;48.112;16.280;2023-01-16T17:52:54;3.05;;;0.80;;
71759;SDS011;59919;48.112;16.280;2023-01-16T17:55:25;1.40;;;0.85;;
71759;SDS011;59919;48.112;16.280;2023-01-16T17:58:15;1.27;;;0.77;;
71759;SDS011;59919;48.112;16.280;2023-01-16T18:00:46;2.90;;;1.08;;
71759;SDS011;59919;48.112;16.280;2023-01-16T18:03:25;1.65;;;0.85;;
71759;SDS011;59919;48.112;16.280;2023-01-16T18:06:03;2.65;;;0.85;;
71759;SDS011;59919;48.112;16.280;2023-01-16T18:08:36;1.55;;;1.00;;
71759;SDS011;59919;48.112;16.280;2023-01-16T18:11:10;2.22;;;1.00;;
71759;SDS011;59919;48.112;16.280;2023-01-16T18:14:08;1.17;;;1.00;;
71759;SDS011;59919;48.112;16.280;2023-01-16T18:16:59;1.52;;;0.80;;
71759;SDS011;59919;48.112;16.280;2023-01-16T18:19:49;1.58;;;0.90;;
71759;SDS011;59919;48.112;16.280;2023-01-16T18:22:28;2.58;;;1.08;;
71759;SDS011;59919;48.112;16.280;2023-01-16T18:25:07;1.15;;;0.90;;
71759;SDS011;59919;48.112;16.280;2023-01-16T18:30:15;3.45;;;0.90;;
71759;SDS011;59919;48.112;16.280;2023-01-16T18:32:47;1.83;;;1.10;;
71759;SDS011;59919;48.112;16.280;2023-01-16T18:35:18;2.03;;;0.90;;
71759;SDS011;59919;48.112;16.280;2023-01-16T18:37:51;1.02;;;0.90;;
71759;SDS011;59919;48.112;16.280;2023-01-16T18:40:41;1.85;;;1.00;;
71759;SDS011;59919;48.112;16.280;2023-01-16T18:43:33;1.52;;;1.10;;
71759;SDS011;59919;48.112;16.280;2023-01-16T18:46:23;2.55;;;1.20;;
71759;SDS011;59919;48.112;16.280;2023-01-16T18:49:12;2.15;;;1.20;;
71759;SDS011;59919;48.112;16.280;2023-01-16T18:52:02;2.08;;;1.17;;
71759;SDS011;59919;48.112;16.280;2023-01-16T18:54:52;1.92;;;1.05;;
71759;SDS011;59919;48.112;16.280;2023-01-16T18:57:41;2.40;;;1.10;;
71759;SDS011;59919;48.112;16.280;2023-01-16T19:00:31;1.13;;;0.95;;
71759;SDS011;59919;48.112;16.280;2023-01-16T19:03:23;2.42;;;1.60;;
71759;SDS011;59919;48.112;16.280;2023-01-16T19:05:55;3.10;;;1.33;;
71759;SDS011;59919;48.112;16.280;2023-01-16T19:08:27;1.48;;;1.10;;
71759;SDS011;59919;48.112;16.280;2023-01-16T19:11:00;5.13;;;1.38;;
71759;SDS011;59919;48.112;16.280;2023-01-16T19:13:33;2.67;;;1.45;;
71759;SDS011;59919;48.112;16.280;2023-01-16T19:16:07;3.63;;;1.00;;
71759;SDS011;59919;48.112;16.280;2023-01-16T19:18:57;2.38;;;1.30;;
71759;SDS011;59919;48.112;16.280;2023-01-16T19:21:28;3.08;;;1.40;;
71759;SDS011;59919;48.112;16.280;2023-01-16T19:24:05;2.27;;;1.40;;
71759;SDS011;59919;48.112;16.280;2023-01-16T19:26:40;1.80;;;1.13;;
71759;SDS011;59919;48.112;16.280;2023-01-16T19:29:16;2.22;;;1.30;;